sensor_id;sensor_type;location;lat;lon;timestamp;pressure;altitude;pressure_sealevel;temperature
13570;BMP180;6856;51.460;7.158;2022-10-17T00:02:03;100572.00;;;19.90
13570;BMP180;6856;51.460;7.158;2022-10-17T00:04:37;100562.00;;;19.90
13570;BMP180;6856;51.460;7.158;2022-10-17T00:07:10;100580.00;;;19.90
13570;BMP180;6856;51.460;7.158;2022-10-17T00:09:44;100582.00;;;19.90
13570;BMP180;6856;51.460;7.158;2022-10-17T00:12:19;100591.00;;;19.90
13570;BMP180;6856;51.460;7.158;2022-10-17T00:14:54;100590.00;;;19.90
13570;BMP180;6856;51.460;7.158;2022-10-17T00:17:30;100588.00;;;19.90
13570;BMP180;6856;51.460;7.158;2022-10-17T00:20:05;100583.00;;;19.90
13570;BMP180;6856;51.460;7.158;2022-10-17T00:22:39;100588.00;;;19.90
13570;BMP180;6856;51.460;7.158;2022-10-17T00:25:12;100574.00;;;19.90
13570;BMP180;6856;51.460;7.158;2022-10-17T00:27:55;100590.00;;;19.90
13570;BMP180;6856;51.460;7.158;2022-10-17T00:30:29;100577.00;;;19.90
13570;BMP180;6856;51.460;7.158;2022-10-17T00:33:05;100582.00;;;19.90
13570;BMP180;6856;51.460;7.158;2022-10-17T00:35:39;100579.00;;;19.90
13570;BMP180;6856;51.460;7.158;2022-10-17T00:38:12;100572.00;;;19.90
13570;BMP180;6856;51.460;7.158;2022-10-17T00:40:46;100571.00;;;19.90
13570;BMP180;6856;51.460;7.158;2022-10-17T00:43:19;100580.00;;;20.00
13570;BMP180;6856;51.460;7.158;2022-10-17T00:45:53;100576.00;;;20.00
13570;BMP180;6856;51.460;7.158;2022-10-17T00:48:28;100541.00;;;20.00
13570;BMP180;6856;51.460;7.158;2022-10-17T00:51:01;100580.00;;;20.00
13570;BMP180;6856;51.460;7.158;2022-10-17T00:53:37;100578.00;;;20.00
13570;BMP180;6856;51.460;7.158;2022-10-17T00:56:11;100578.00;;;20.00
13570;BMP180;6856;51.460;7.158;2022-10-17T00:58:50;100567.00;;;20.00
13570;BMP180;6856;51.460;7.158;2022-10-17T01:01:24;100560.00;;;20.00
13570;BMP180;6856;51.460;7.158;2022-10-17T01:04:01;100567.00;;;20.00
13570;BMP180;6856;51.460;7.158;2022-10-17T01:06:34;100572.00;;;20.00
13570;BMP180;6856;51.460;7.158;2022-10-17T01:09:07;100553.00;;;20.00
13570;BMP180;6856;51.460;7.158;2022-10-17T01:11:49;100552.00;;;20.00
13570;BMP180;6856;51.460;7.158;2022-10-17T01:14:33;100559.00;;;20.00
13570;BMP180;6856;51.460;7.158;2022-10-17T01:17:21;100569.00;;;20.10
13570;BMP180;6856;51.460;7.158;2022-10-17T01:20:45;100571.00;;;20.10
13570;BMP180;6856;51.460;7.158;2022-10-17T01:27:04;100560.00;;;20.10
13570;BMP180;6856;51.460;7.158;2022-10-17T01:29:56;100539.00;;;20.10
13570;BMP180;6856;51.460;7.158;2022-10-17T01:32:38;100564.00;;;20.10
13570;BMP180;6856;51.460;7.158;2022-10-17T01:35:20;100563.00;;;20.10
13570;BMP180;6856;51.460;7.158;2022-10-17T01:38:10;100562.00;;;20.10
13570;BMP180;6856;51.460;7.158;2022-10-17T01:40:50;100557.00;;;20.10
13570;BMP180;6856;51.460;7.158;2022-10-17T01:43:34;100543.00;;;20.10
13570;BMP180;6856;51.460;7.158;2022-10-17T01:46:22;100552.00;;;20.20
13570;BMP180;6856;51.460;7.158;2022-10-17T01:49:01;100547.00;;;20.20
13570;BMP180;6856;51.460;7.158;2022-10-17T01:51:40;100556.00;;;20.20
13570;BMP180;6856;51.460;7.158;2022-10-17T01:54:21;100547.00;;;20.20
13570;BMP180;6856;51.460;7.158;2022-10-17T01:57:00;100545.00;;;20.20
13570;BMP180;6856;51.460;7.158;2022-10-17T01:59:40;100556.00;;;20.20
13570;BMP180;6856;51.460;7.158;2022-10-17T02:02:16;100556.00;;;20.20
13570;BMP180;6856;51.460;7.158;2022-10-17T02:04:56;100552.00;;;20.20
13570;BMP180;6856;51.460;7.158;2022-10-17T02:07:29;100550.00;;;20.20
13570;BMP180;6856;51.460;7.158;2022-10-17T02:10:12;100540.00;;;20.20
13570;BMP180;6856;51.460;7.158;2022-10-17T02:12:55;100534.00;;;20.20
13570;BMP180;6856;51.460;7.158;2022-10-17T02:15:56;100536.00;;;20.20
13570;BMP180;6856;51.460;7.158;2022-10-17T02:18:58;100542.00;;;20.30
13570;BMP180;6856;51.460;7.158;2022-10-17T02:21:45;100529.00;;;20.30
13570;BMP180;6856;51.460;7.158;2022-10-17T02:24:32;100539.00;;;20.20
13570;BMP180;6856;51.460;7.158;2022-10-17T02:27:14;100548.00;;;20.30
13570;BMP180;6856;51.460;7.158;2022-10-17T02:29:57;100542.00;;;20.30
13570;BMP180;6856;51.460;7.158;2022-10-17T02:32:39;100539.00;;;20.30
13570;BMP180;6856;51.460;7.158;2022-10-17T02:35:24;100536.00;;;20.40
13570;BMP180;6856;51.460;7.158;2022-10-17T02:38:02;100533.00;;;20.40
13570;BMP180;6856;51.460;7.158;2022-10-17T02:40:38;100523.00;;;20.40
13570;BMP180;6856;51.460;7.158;2022-10-17T02:43:13;100527.00;;;20.40
13570;BMP180;6856;51.460;7.158;2022-10-17T02:45:47;100521.00;;;20.40
13570;BMP180;6856;51.460;7.158;2022-10-17T02:48:27;100530.00;;;20.40
13570;BMP180;6856;51.460;7.158;2022-10-17T02:51:11;100517.00;;;20.40
13570;BMP180;6856;51.460;7.158;2022-10-17T02:54:00;100513.00;;;20.40
13570;BMP180;6856;51.460;7.158;2022-10-17T02:56:46;100511.00;;;20.40
13570;BMP180;6856;51.460;7.158;2022-10-17T02:59:24;100541.00;;;20.40
13570;BMP180;6856;51.460;7.158;2022-10-17T03:02:02;100533.00;;;20.40
13570;BMP180;6856;51.460;7.158;2022-10-17T03:04:36;100534.00;;;20.50
13570;BMP180;6856;51.460;7.158;2022-10-17T03:07:11;100526.00;;;20.50
13570;BMP180;6856;51.460;7.158;2022-10-17T03:09:46;100534.00;;;20.50
13570;BMP180;6856;51.460;7.158;2022-10-17T03:12:20;100544.00;;;20.50
13570;BMP180;6856;51.460;7.158;2022-10-17T03:14:53;100533.00;;;20.50
13570;BMP180;6856;51.460;7.158;2022-10-17T03:17:26;100536.00;;;20.50
13570;BMP180;6856;51.460;7.158;2022-10-17T03:20:00;100489.00;;;20.50
13570;BMP180;6856;51.460;7.158;2022-10-17T03:22:33;100521.00;;;20.50
13570;BMP180;6856;51.460;7.158;2022-10-17T03:25:09;100538.00;;;20.50
13570;BMP180;6856;51.460;7.158;2022-10-17T03:27:43;100530.00;;;20.50
13570;BMP180;6856;51.460;7.158;2022-10-17T03:30:16;100534.00;;;20.50
13570;BMP180;6856;51.460;7.158;2022-10-17T03:32:50;100546.00;;;20.50
13570;BMP180;6856;51.460;7.158;2022-10-17T03:35:23;100547.00;;;20.50
13570;BMP180;6856;51.460;7.158;2022-10-17T03:37:57;100543.00;;;20.50
13570;BMP180;6856;51.460;7.158;2022-10-17T03:40:32;100552.00;;;20.50
13570;BMP180;6856;51.460;7.158;2022-10-17T03:43:05;100553.00;;;20.50
13570;BMP180;6856;51.460;7.158;2022-10-17T03:45:38;100551.00;;;20.50
13570;BMP180;6856;51.460;7.158;2022-10-17T03:48:14;100544.00;;;20.50
13570;BMP180;6856;51.460;7.158;2022-10-17T03:50:47;100556.00;;;20.50
13570;BMP180;6856;51.460;7.158;2022-10-17T03:53:22;100562.00;;;20.50
13570;BMP180;6856;51.460;7.158;2022-10-17T03:56:08;100561.00;;;20.60
13570;BMP180;6856;51.460;7.158;2022-10-17T03:58:42;100561.00;;;20.60
13570;BMP180;6856;51.460;7.158;2022-10-17T04:01:18;100560.00;;;20.50
13570;BMP180;6856;51.460;7.158;2022-10-17T04:03:55;100547.00;;;20.60
13570;BMP180;6856;51.460;7.158;2022-10-17T04:06:28;100551.00;;;20.50
13570;BMP180;6856;51.460;7.158;2022-10-17T04:09:03;100546.00;;;20.60
13570;BMP180;6856;51.460;7.158;2022-10-17T04:11:40;100555.00;;;20.60
13570;BMP180;6856;51.460;7.158;2022-10-17T04:14:13;100561.00;;;20.60
13570;BMP180;6856;51.460;7.158;2022-10-17T04:16:53;100569.00;;;20.60
13570;BMP180;6856;51.460;7.158;2022-10-17T04:19:27;100561.00;;;20.60
13570;BMP180;6856;51.460;7.158;2022-10-17T04:22:00;100567.00;;;20.60
13570;BMP180;6856;51.460;7.158;2022-10-17T04:24:35;100555.00;;;20.60
13570;BMP180;6856;51.460;7.158;2022-10-17T04:27:09;100564.00;;;20.60
13570;BMP180;6856;51.460;7.158;2022-10-17T04:29:42;100565.00;;;20.60
13570;BMP180;6856;51.460;7.158;2022-10-17T04:32:16;100564.00;;;20.60
13570;BMP180;6856;51.460;7.158;2022-10-17T04:34:50;100563.00;;;20.60
13570;BMP180;6856;51.460;7.158;2022-10-17T04:37:23;100562.00;;;20.60
13570;BMP180;6856;51.460;7.158;2022-10-17T04:39:57;100580.00;;;20.60
13570;BMP180;6856;51.460;7.158;2022-10-17T04:42:32;100577.00;;;20.60
13570;BMP180;6856;51.460;7.158;2022-10-17T04:45:07;100586.00;;;20.60
13570;BMP180;6856;51.460;7.158;2022-10-17T04:47:41;100573.00;;;20.60
13570;BMP180;6856;51.460;7.158;2022-10-17T04:50:15;100582.00;;;20.60
13570;BMP180;6856;51.460;7.158;2022-10-17T04:52:48;100581.00;;;20.60
13570;BMP180;6856;51.460;7.158;2022-10-17T04:55:22;100583.00;;;20.60
13570;BMP180;6856;51.460;7.158;2022-10-17T04:57:58;100589.00;;;20.60
13570;BMP180;6856;51.460;7.158;2022-10-17T05:00:31;100591.00;;;20.70
13570;BMP180;6856;51.460;7.158;2022-10-17T05:03:07;100580.00;;;20.70
13570;BMP180;6856;51.460;7.158;2022-10-17T05:05:41;100586.00;;;20.70
13570;BMP180;6856;51.460;7.158;2022-10-17T05:08:15;100592.00;;;20.70
13570;BMP180;6856;51.460;7.158;2022-10-17T05:10:48;100552.00;;;20.70
13570;BMP180;6856;51.460;7.158;2022-10-17T05:13:23;100565.00;;;20.70
13570;BMP180;6856;51.460;7.158;2022-10-17T05:15:59;100601.00;;;20.70
13570;BMP180;6856;51.460;7.158;2022-10-17T05:18:33;100592.00;;;20.70
13570;BMP180;6856;51.460;7.158;2022-10-17T05:21:07;100614.00;;;20.70
13570;BMP180;6856;51.460;7.158;2022-10-17T05:23:44;100600.00;;;20.70
13570;BMP180;6856;51.460;7.158;2022-10-17T05:26:20;100612.00;;;20.70
13570;BMP180;6856;51.460;7.158;2022-10-17T05:28:56;100604.00;;;20.70
13570;BMP180;6856;51.460;7.158;2022-10-17T05:31:36;100602.00;;;20.70
13570;BMP180;6856;51.460;7.158;2022-10-17T05:34:11;100594.00;;;20.60
13570;BMP180;6856;51.460;7.158;2022-10-17T05:36:45;100587.00;;;20.70
13570;BMP180;6856;51.460;7.158;2022-10-17T05:39:18;100601.00;;;20.70
13570;BMP180;6856;51.460;7.158;2022-10-17T05:41:52;100589.00;;;20.70
13570;BMP180;6856;51.460;7.158;2022-10-17T05:44:27;100590.00;;;20.70
13570;BMP180;6856;51.460;7.158;2022-10-17T05:47:00;100614.00;;;20.70
13570;BMP180;6856;51.460;7.158;2022-10-17T05:49:34;100615.00;;;20.70
13570;BMP180;6856;51.460;7.158;2022-10-17T05:52:23;100610.00;;;20.70
13570;BMP180;6856;51.460;7.158;2022-10-17T05:54:56;100623.00;;;20.70
13570;BMP180;6856;51.460;7.158;2022-10-17T05:57:29;100637.00;;;20.70
13570;BMP180;6856;51.460;7.158;2022-10-17T06:00:06;100633.00;;;20.70
13570;BMP180;6856;51.460;7.158;2022-10-17T06:02:40;100620.00;;;20.70
13570;BMP180;6856;51.460;7.158;2022-10-17T06:05:15;100628.00;;;20.70
13570;BMP180;6856;51.460;7.158;2022-10-17T06:07:49;100626.00;;;20.70
13570;BMP180;6856;51.460;7.158;2022-10-17T06:10:25;100627.00;;;20.70
13570;BMP180;6856;51.460;7.158;2022-10-17T06:13:03;100639.00;;;20.70
13570;BMP180;6856;51.460;7.158;2022-10-17T06:15:38;100629.00;;;20.70
13570;BMP180;6856;51.460;7.158;2022-10-17T06:18:12;100637.00;;;20.80
13570;BMP180;6856;51.460;7.158;2022-10-17T06:20:47;100637.00;;;20.80
13570;BMP180;6856;51.460;7.158;2022-10-17T06:23:21;100604.00;;;20.80
13570;BMP180;6856;51.460;7.158;2022-10-17T06:25:58;100648.00;;;20.70
13570;BMP180;6856;51.460;7.158;2022-10-17T06:28:32;100640.00;;;20.80
13570;BMP180;6856;51.460;7.158;2022-10-17T06:31:15;100664.00;;;20.80
13570;BMP180;6856;51.460;7.158;2022-10-17T06:33:55;100658.00;;;20.80
13570;BMP180;6856;51.460;7.158;2022-10-17T06:36:28;100673.00;;;20.80
13570;BMP180;6856;51.460;7.158;2022-10-17T06:39:03;100663.00;;;20.80
13570;BMP180;6856;51.460;7.158;2022-10-17T06:41:37;100670.00;;;20.80
13570;BMP180;6856;51.460;7.158;2022-10-17T06:44:12;100666.00;;;20.70
13570;BMP180;6856;51.460;7.158;2022-10-17T06:46:47;100662.00;;;20.80
13570;BMP180;6856;51.460;7.158;2022-10-17T06:49:22;100657.00;;;20.80
13570;BMP180;6856;51.460;7.158;2022-10-17T06:51:55;100670.00;;;20.70
13570;BMP180;6856;51.460;7.158;2022-10-17T06:54:30;100672.00;;;20.70
13570;BMP180;6856;51.460;7.158;2022-10-17T06:57:03;100667.00;;;20.70
13570;BMP180;6856;51.460;7.158;2022-10-17T06:59:37;100661.00;;;20.70
13570;BMP180;6856;51.460;7.158;2022-10-17T07:02:12;100670.00;;;20.70
13570;BMP180;6856;51.460;7.158;2022-10-17T07:04:46;100674.00;;;20.70
13570;BMP180;6856;51.460;7.158;2022-10-17T07:07:20;100684.00;;;20.70
13570;BMP180;6856;51.460;7.158;2022-10-17T07:09:54;100672.00;;;20.80
13570;BMP180;6856;51.460;7.158;2022-10-17T07:12:27;100667.00;;;20.80
13570;BMP180;6856;51.460;7.158;2022-10-17T07:15:02;100681.00;;;20.80
13570;BMP180;6856;51.460;7.158;2022-10-17T07:17:38;100677.00;;;20.90
13570;BMP180;6856;51.460;7.158;2022-10-17T07:20:11;100701.00;;;20.90
13570;BMP180;6856;51.460;7.158;2022-10-17T07:22:46;100697.00;;;20.90
13570;BMP180;6856;51.460;7.158;2022-10-17T07:25:20;100702.00;;;20.90
13570;BMP180;6856;51.460;7.158;2022-10-17T07:27:55;100704.00;;;20.90
13570;BMP180;6856;51.460;7.158;2022-10-17T07:30:29;100706.00;;;21.00
13570;BMP180;6856;51.460;7.158;2022-10-17T07:33:04;100700.00;;;21.00
13570;BMP180;6856;51.460;7.158;2022-10-17T07:35:38;100689.00;;;21.00
13570;BMP180;6856;51.460;7.158;2022-10-17T07:38:13;100698.00;;;21.10
13570;BMP180;6856;51.460;7.158;2022-10-17T07:40:53;100690.00;;;21.10
13570;BMP180;6856;51.460;7.158;2022-10-17T07:43:29;100694.00;;;21.10
13570;BMP180;6856;51.460;7.158;2022-10-17T07:46:04;100692.00;;;21.20
13570;BMP180;6856;51.460;7.158;2022-10-17T20:07:39;101355.00;;;21.50
13570;BMP180;6856;51.460;7.158;2022-10-17T20:10:13;101350.00;;;21.50
13570;BMP180;6856;51.460;7.158;2022-10-17T20:12:46;101347.00;;;21.60
13570;BMP180;6856;51.460;7.158;2022-10-17T20:15:20;101362.00;;;21.60
13570;BMP180;6856;51.460;7.158;2022-10-17T20:17:53;101356.00;;;21.60
13570;BMP180;6856;51.460;7.158;2022-10-17T20:20:27;101340.00;;;21.60
13570;BMP180;6856;51.460;7.158;2022-10-17T20:23:03;101349.00;;;21.60
13570;BMP180;6856;51.460;7.158;2022-10-17T20:25:41;101342.00;;;21.60
13570;BMP180;6856;51.460;7.158;2022-10-17T20:28:14;101343.00;;;21.60
13570;BMP180;6856;51.460;7.158;2022-10-17T20:30:48;101359.00;;;21.60
13570;BMP180;6856;51.460;7.158;2022-10-17T20:33:21;101364.00;;;21.60
13570;BMP180;6856;51.460;7.158;2022-10-17T20:36:07;101348.00;;;21.60
13570;BMP180;6856;51.460;7.158;2022-10-17T20:38:44;101352.00;;;21.60
13570;BMP180;6856;51.460;7.158;2022-10-17T20:41:18;101355.00;;;21.50
13570;BMP180;6856;51.460;7.158;2022-10-17T20:43:54;101359.00;;;21.50
13570;BMP180;6856;51.460;7.158;2022-10-17T20:46:27;101356.00;;;21.50
13570;BMP180;6856;51.460;7.158;2022-10-17T20:49:13;101356.00;;;21.50
13570;BMP180;6856;51.460;7.158;2022-10-17T20:51:47;101358.00;;;21.50
13570;BMP180;6856;51.460;7.158;2022-10-17T20:54:22;101355.00;;;21.50
13570;BMP180;6856;51.460;7.158;2022-10-17T20:56:56;101355.00;;;21.50
13570;BMP180;6856;51.460;7.158;2022-10-17T20:59:36;101352.00;;;21.50
13570;BMP180;6856;51.460;7.158;2022-10-17T21:02:12;101355.00;;;21.40
13570;BMP180;6856;51.460;7.158;2022-10-17T21:04:45;101369.00;;;21.40
13570;BMP180;6856;51.460;7.158;2022-10-17T21:07:21;101371.00;;;21.40
13570;BMP180;6856;51.460;7.158;2022-10-17T21:09:57;101378.00;;;21.40
13570;BMP180;6856;51.460;7.158;2022-10-17T21:12:51;101369.00;;;21.30
13570;BMP180;6856;51.460;7.158;2022-10-17T21:15:25;101381.00;;;21.30
13570;BMP180;6856;51.460;7.158;2022-10-17T21:17:59;101368.00;;;21.20
13570;BMP180;6856;51.460;7.158;2022-10-17T21:20:34;101356.00;;;21.20
13570;BMP180;6856;51.460;7.158;2022-10-17T21:23:08;101374.00;;;21.20
13570;BMP180;6856;51.460;7.158;2022-10-17T21:25:42;101388.00;;;21.20
13570;BMP180;6856;51.460;7.158;2022-10-17T21:28:16;101378.00;;;21.20
13570;BMP180;6856;51.460;7.158;2022-10-17T21:30:50;101364.00;;;21.20
13570;BMP180;6856;51.460;7.158;2022-10-17T21:33:24;101385.00;;;21.20
13570;BMP180;6856;51.460;7.158;2022-10-17T21:35:57;101383.00;;;21.20
13570;BMP180;6856;51.460;7.158;2022-10-17T21:38:32;101381.00;;;21.20
13570;BMP180;6856;51.460;7.158;2022-10-17T21:41:10;101365.00;;;21.20
13570;BMP180;6856;51.460;7.158;2022-10-17T21:43:43;101374.00;;;21.20
13570;BMP180;6856;51.460;7.158;2022-10-17T21:46:21;101388.00;;;21.20
13570;BMP180;6856;51.460;7.158;2022-10-17T21:48:56;101392.00;;;21.20
13570;BMP180;6856;51.460;7.158;2022-10-17T21:51:32;101388.00;;;21.20
13570;BMP180;6856;51.460;7.158;2022-10-17T21:54:08;101390.00;;;21.20
13570;BMP180;6856;51.460;7.158;2022-10-17T21:56:43;101398.00;;;21.20
13570;BMP180;6856;51.460;7.158;2022-10-17T21:59:23;101395.00;;;21.20
13570;BMP180;6856;51.460;7.158;2022-10-17T22:01:56;101409.00;;;21.20
13570;BMP180;6856;51.460;7.158;2022-10-17T22:04:30;101407.00;;;21.20
13570;BMP180;6856;51.460;7.158;2022-10-17T22:07:03;101408.00;;;21.20
13570;BMP180;6856;51.460;7.158;2022-10-17T22:09:37;101396.00;;;21.20
13570;BMP180;6856;51.460;7.158;2022-10-17T22:12:12;101385.00;;;21.20
13570;BMP180;6856;51.460;7.158;2022-10-17T22:14:45;101404.00;;;21.20
13570;BMP180;6856;51.460;7.158;2022-10-17T22:17:19;101401.00;;;21.20
13570;BMP180;6856;51.460;7.158;2022-10-17T22:19:53;101404.00;;;21.20
13570;BMP180;6856;51.460;7.158;2022-10-17T22:22:26;101408.00;;;21.20
13570;BMP180;6856;51.460;7.158;2022-10-17T22:25:00;101409.00;;;21.20
13570;BMP180;6856;51.460;7.158;2022-10-17T22:27:37;101393.00;;;21.20
13570;BMP180;6856;51.460;7.158;2022-10-17T22:30:13;101406.00;;;21.20
13570;BMP180;6856;51.460;7.158;2022-10-17T22:32:46;101417.00;;;21.20
13570;BMP180;6856;51.460;7.158;2022-10-17T22:35:20;101407.00;;;21.20
13570;BMP180;6856;51.460;7.158;2022-10-17T22:37:53;101414.00;;;21.20
13570;BMP180;6856;51.460;7.158;2022-10-17T22:40:27;101406.00;;;21.20
13570;BMP180;6856;51.460;7.158;2022-10-17T22:43:03;101405.00;;;21.20
13570;BMP180;6856;51.460;7.158;2022-10-17T22:45:37;101419.00;;;21.20
13570;BMP180;6856;51.460;7.158;2022-10-17T22:48:10;101408.00;;;21.10
13570;BMP180;6856;51.460;7.158;2022-10-17T22:50:44;101417.00;;;21.10
13570;BMP180;6856;51.460;7.158;2022-10-17T22:53:21;101412.00;;;21.10
13570;BMP180;6856;51.460;7.158;2022-10-17T22:56:00;101422.00;;;21.00
13570;BMP180;6856;51.460;7.158;2022-10-17T22:58:37;101426.00;;;21.10
13570;BMP180;6856;51.460;7.158;2022-10-17T23:01:15;101436.00;;;21.00
13570;BMP180;6856;51.460;7.158;2022-10-17T23:03:50;101434.00;;;21.00
13570;BMP180;6856;51.460;7.158;2022-10-17T23:06:24;101416.00;;;21.00
13570;BMP180;6856;51.460;7.158;2022-10-17T23:08:58;101402.00;;;21.00
13570;BMP180;6856;51.460;7.158;2022-10-17T23:11:31;101434.00;;;21.00
13570;BMP180;6856;51.460;7.158;2022-10-17T23:14:06;101443.00;;;21.00
13570;BMP180;6856;51.460;7.158;2022-10-17T23:16:39;101423.00;;;21.00
13570;BMP180;6856;51.460;7.158;2022-10-17T23:19:13;101432.00;;;21.00
13570;BMP180;6856;51.460;7.158;2022-10-17T23:21:46;101433.00;;;21.00
13570;BMP180;6856;51.460;7.158;2022-10-17T23:24:20;101423.00;;;21.00
13570;BMP180;6856;51.460;7.158;2022-10-17T23:26:53;101435.00;;;21.00
13570;BMP180;6856;51.460;7.158;2022-10-17T23:29:33;101426.00;;;21.00
13570;BMP180;6856;51.460;7.158;2022-10-17T23:32:06;101429.00;;;21.00
13570;BMP180;6856;51.460;7.158;2022-10-17T23:34:45;101418.00;;;21.00
13570;BMP180;6856;51.460;7.158;2022-10-17T23:37:19;101409.00;;;21.00
13570;BMP180;6856;51.460;7.158;2022-10-17T23:39:56;101408.00;;;21.00
13570;BMP180;6856;51.460;7.158;2022-10-17T23:42:30;101418.00;;;21.00
13570;BMP180;6856;51.460;7.158;2022-10-17T23:45:07;101413.00;;;21.00
13570;BMP180;6856;51.460;7.158;2022-10-17T23:47:40;101410.00;;;20.90
13570;BMP180;6856;51.460;7.158;2022-10-17T23:50:14;101381.00;;;20.90
13570;BMP180;6856;51.460;7.158;2022-10-17T23:52:47;101419.00;;;20.80
13570;BMP180;6856;51.460;7.158;2022-10-17T23:55:21;101413.00;;;20.90
13570;BMP180;6856;51.460;7.158;2022-10-17T23:57:54;101420.00;;;20.90
